Terminal Aerodrome Forecast
Issued by NWS

Current Version | Previous Version | Text Only | Print | Product List | Glossary On
Versions: 1 2 3 4 5 6 7 8 9 10 11 12 13 14 15 16 17 18
000
FTUS41 KCAR 260522 AAC
TAFFVE
TAF AMD
KFVE 260522Z 2605/2706 34009KT P6SM OVC004
     FM261100 33009KT P6SM SCT005
     FM270400 11004KT P6SM BKN015
     FM270500 12005KT P6SM BKN010=

USA.gov is the U.S. government's official web portal to all federal, state and local government web resources and services.